Iblea — IBFK — position and weather

sailwx.info

Track history (hours):
 
Tides and Currents Weather Stations Pressure Air Temp Water Temp Dewpoint Dewpoint Depression Visibility Wind Speed Wind Dir Waves Ship Positions

Iblea

Last reported at 2017-Sep-25 04:21 UTC. Time now 2017-Sep-25 04:41 UTC.
Position N 37°12' W 009°42'.

Length 176 m; draft 11.4 m.

Type: Tanker. MMSI: 247087700.

Date/timePositionNaut miles runAvg speedWind from/ knotsBaromVisibWave heightAir tempDewpointWater temp
2017-Sep-25 04:21N 37°12' W 009°42'411.6
2017-Sep-25 03:58N 37°15' W 009°38'611.5
2017-Sep-25 03:29N 37°19' W 009°33'611.6
2017-Sep-25 02:56N 37°23' W 009°27'511.6
2017-Sep-25 02:30N 37°27' W 009°23'611.7
2017-Sep-25 01:59N 37°32' W 009°19'612.0
2017-Sep-25 01:29N 37°37' W 009°15'711.6
2017-Sep-25 00:55N 37°41' W 009°09'512.0
2017-Sep-25 00:29N 37°45' W 009°04'612.1
2017-Sep-25 00:00N 37°49' W 008°59'612.0
2017-Sep-24 23:30N 37°54' W 008°54'3 6.3
2017-Sep-24 23:00N 37°57' W 008°53'0 0.0
2017-Sep-24 22:29N 37°57' W 008°53'0 0.0
2017-Sep-24 21:59N 37°57' W 008°53'0 0.0
2017-Sep-24 21:29N 37°57' W 008°53'0 0.0
2017-Sep-24 20:59N 37°57' W 008°53'0 0.0
2017-Sep-24 20:29N 37°57' W 008°53'0 0.0
2017-Sep-24 19:59N 37°57' W 008°53'0 0.0
2017-Sep-24 19:29N 37°57' W 008°53'0 0.0
2017-Sep-24 18:59N 37°57' W 008°53'0 0.0
2017-Sep-24 18:29N 37°57' W 008°53'0 0.0
2017-Sep-24 17:59N 37°57' W 008°53'0 0.0
2017-Sep-24 17:29N 37°57' W 008°53'0 0.0
2017-Sep-24 16:59N 37°57' W 008°53'0 0.0
2017-Sep-24 16:29N 37°57' W 008°53'0 0.0
2017-Sep-24 15:59N 37°57' W 008°53'0 0.0
2017-Sep-24 15:29N 37°57' W 008°53'0 0.0
2017-Sep-24 14:59N 37°57' W 008°53'0 0.0
2017-Sep-24 14:29N 37°57' W 008°53'0 0.0
2017-Sep-24 13:59N 37°57' W 008°53'0 0.0
2017-Sep-24 13:29N 37°57' W 008°53'0 0.0
2017-Sep-24 12:59N 37°57' W 008°53'0 0.0
2017-Sep-24 12:29N 37°57' W 008°53'0 0.0
2017-Sep-24 11:59N 37°57' W 008°53'0 0.0
2017-Sep-24 11:29N 37°57' W 008°53'0 0.0
2017-Sep-24 10:59N 37°57' W 008°53'0 0.0
2017-Sep-24 10:29N 37°57' W 008°53'0 0.0
2017-Sep-24 09:59N 37°57' W 008°53'0 0.0
2017-Sep-24 09:29N 37°57' W 008°53'0 0.0
2017-Sep-24 08:59N 37°57' W 008°53'0 0.0
2017-Sep-24 08:29N 37°57' W 008°53'0 0.0
2017-Sep-24 07:59N 37°57' W 008°53'0 0.0
2017-Sep-24 07:29N 37°57' W 008°53'0 0.0
2017-Sep-24 06:59N 37°57' W 008°53'0 0.0
2017-Sep-24 06:29N 37°57' W 008°53'0 0.0
2017-Sep-24 05:59N 37°57' W 008°53'0 0.0
2017-Sep-24 05:29N 37°57' W 008°53'0 0.0
2017-Sep-24 04:59N 37°57' W 008°53'0 0.0
2017-Sep-24 04:29N 37°57' W 008°53'0 0.0
2017-Sep-24 03:59N 37°57' W 008°53'0 0.0
2017-Sep-24 03:29N 37°57' W 008°53'0 0.0
2017-Sep-24 02:59N 37°57' W 008°53'0 0.0
2017-Sep-24 02:29N 37°57' W 008°53'0 0.0
2017-Sep-24 01:59N 37°57' W 008°53'0 0.0
2017-Sep-24 01:29N 37°57' W 008°53'0 0.0
2017-Sep-24 00:59N 37°57' W 008°53'0 0.0
2017-Sep-24 00:29N 37°57' W 008°53'0 0.0
2017-Sep-23 23:59N 37°57' W 008°53'0 0.2
2017-Sep-23 23:30N 37°57' W 008°53'2 4.9
2017-Sep-23 23:00N 37°54' W 008°53'4 7.5
2017-Sep-23 22:30N 37°51' W 008°55'4 8.8
2017-Sep-23 22:00N 37°47' W 008°57'5 9.8
2017-Sep-23 21:30N 37°42' W 008°60'5 9.9
2017-Sep-23 21:00N 37°38' W 009°02'5 9.8
2017-Sep-23 20:30N 37°33' W 009°04'5 9.8
2017-Sep-23 20:00N 37°29' W 009°07'  
2017-Sep-21 15:19N 36°43' W 007°15'40 1.1
2017-Sep-20 04:01N 36°17' W 007°53'011.8
2017-Sep-20 04:00N 36°17' W 007°53'611.6
2017-Sep-20 03:30N 36°13' W 007°58'1211.5
2017-Sep-20 02:27N 36°04' W 008°08'911.3
2017-Sep-20 01:42N 35°58' W 008°15'211.1
2017-Sep-20 01:30N 35°56' W 008°17'611.0
2017-Sep-20 00:57N 35°52' W 008°22'1311.0
2017-Sep-19 23:43N 35°42' W 008°33'311.1
2017-Sep-19 23:27N 35°39' W 008°36'511.0
2017-Sep-19 23:00N 35°36' W 008°40'11411.1
2017-Sep-19 12:44N 34°13' W 010°15'7910.8
2017-Sep-19 05:27N 33°15' W 011°19'3810.5
2017-Sep-19 01:48N 32°47' W 011°50'6010.4
2017-Sep-18 20:02N 32°03' W 012°39'010.5
2017-Sep-18 20:00N 32°03' W 012°39'1010.7
2017-Sep-18 19:03N 31°56' W 012°47'210.8
2017-Sep-18 18:53N 31°54' W 012°49'11810.9
2017-Sep-18 08:03N 30°16' W 014°05'110.7
2017-Sep-18 07:57N 30°15' W 014°06'610.5
2017-Sep-18 07:21N 30°10' W 014°09'410.5
2017-Sep-18 07:00N 30°07' W 014°11'510.4
2017-Sep-18 06:30N 30°02' W 014°14'610.4
2017-Sep-18 05:55N 29°57' W 014°17'410.4
2017-Sep-18 05:31N 29°53' W 014°19'610.4
2017-Sep-18 04:55N 29°48' W 014°23'410.5
2017-Sep-18 04:30N 29°44' W 014°25'510.4
2017-Sep-18 04:00N 29°39' W 014°28'510.5
2017-Sep-18 03:30N 29°34' W 014°30'510.6
2017-Sep-18 03:00N 29°30' W 014°33'510.5
2017-Sep-18 02:30N 29°25' W 014°36'510.3
2017-Sep-18 01:59N 29°20' W 014°39'510.2
2017-Sep-18 01:30N 29°16' W 014°42'510.2
2017-Sep-18 01:00N 29°12' W 014°44'510.2
2017-Sep-18 00:30N 29°07' W 014°47'510.1
2017-Sep-18 00:00N 29°02' W 014°50'510.1
2017-Sep-17 23:30N 28°58' W 014°52'510.0
2017-Sep-17 23:00N 28°54' W 014°55'510.0
2017-Sep-17 22:30N 28°49' W 014°58'510.0
2017-Sep-17 22:00N 28°45' W 015°00'5 9.9
2017-Sep-17 21:30N 28°40' W 015°03'510.0
2017-Sep-17 21:00N 28°36' W 015°06'510.0
2017-Sep-17 20:30N 28°32' W 015°08'510.1
2017-Sep-17 20:00N 28°27' W 015°11'510.1
2017-Sep-17 19:30N 28°23' W 015°14'510.1
2017-Sep-17 19:00N 28°18' W 015°16'510.1
2017-Sep-17 18:30N 28°14' W 015°19'510.3
2017-Sep-17 18:00N 28°09' W 015°22'3 5.4
2017-Sep-17 17:30N 28°08' W 015°25'0 0.5
2017-Sep-17 17:00N 28°08' W 015°25'0 0.0
2017-Sep-17 16:30N 28°09' W 015°25'0 0.0
2017-Sep-17 16:00N 28°08' W 015°25'0 0.0
2017-Sep-17 15:30N 28°08' W 015°25'0 0.0
2017-Sep-17 15:00N 28°09' W 015°25'0 0.0
2017-Sep-17 14:30N 28°08' W 015°25'0 0.0
2017-Sep-17 14:00N 28°08' W 015°25'0 0.0
2017-Sep-17 13:30N 28°09' W 015°25'0 0.0
2017-Sep-17 13:00N 28°08' W 015°25'0 0.0
2017-Sep-17 12:30N 28°08' W 015°25'0 0.0
2017-Sep-17 12:00N 28°08' W 015°25'0 0.0
2017-Sep-17 11:30N 28°08' W 015°25'0 0.0
2017-Sep-17 10:51N 28°08' W 015°25'0 0.0
2017-Sep-17 10:24N 28°08' W 015°25'0 0.0
2017-Sep-17 09:54N 28°08' W 015°25'0 0.0
2017-Sep-17 09:24N 28°08' W 015°25'0 0.0
2017-Sep-17 08:54N 28°08' W 015°25'0 0.0
2017-Sep-17 08:24N 28°08' W 015°25'0 0.0
2017-Sep-17 07:54N 28°08' W 015°25'0 0.0
2017-Sep-17 07:24N 28°08' W 015°25'0 0.0
2017-Sep-17 06:57N 28°08' W 015°25'0 0.0
2017-Sep-17 06:27N 28°08' W 015°25'0 0.0
2017-Sep-17 05:57N 28°08' W 015°25'0 0.0
2017-Sep-17 05:27N 28°08' W 015°25'0 0.0
2017-Sep-17 04:57N 28°08' W 015°25'0 0.0
2017-Sep-17 04:30N 28°08' W 015°25'0 0.0
2017-Sep-17 04:00N 28°08' W 015°25'0 0.0
2017-Sep-17 03:30N 28°08' W 015°25'0 0.0
2017-Sep-17 03:00N 28°08' W 015°25'0 0.0
2017-Sep-17 02:30N 28°08' W 015°25'0 0.0
2017-Sep-17 02:00N 28°08' W 015°25'0 0.0
2017-Sep-17 01:30N 28°08' W 015°25'0 0.0
2017-Sep-17 01:00N 28°08' W 015°25'0 0.0
2017-Sep-17 00:30N 28°08' W 015°25'0 0.0
2017-Sep-17 00:00N 28°08' W 015°25'0 0.0
2017-Sep-16 23:30N 28°08' W 015°25'0 0.0
2017-Sep-16 23:00N 28°08' W 015°25'0 0.0
2017-Sep-16 22:30N 28°09' W 015°25'0 0.0
2017-Sep-16 22:00N 28°08' W 015°25'0 0.0
2017-Sep-16 21:21N 28°08' W 015°25'0 0.0
2017-Sep-16 20:51N 28°08' W 015°25'0 0.0
2017-Sep-16 20:24N 28°08' W 015°25'0 0.0
2017-Sep-16 19:54N 28°08' W 015°25'0 0.0
2017-Sep-16 19:24N 28°09' W 015°25'0 0.0
2017-Sep-16 18:54N 28°08' W 015°25'0 0.0
2017-Sep-16 18:24N 28°08' W 015°25'0 0.0
2017-Sep-16 17:54N 28°08' W 015°25'0 0.0
2017-Sep-16 17:21N 28°08' W 015°25'0 0.0
2017-Sep-16 16:57N 28°08' W 015°25'0 0.0
2017-Sep-16 16:27N 28°08' W 015°25'0 0.0
2017-Sep-16 15:57N 28°08' W 015°25'0 0.0
2017-Sep-16 15:27N 28°08' W 015°25'0 0.0
2017-Sep-16 14:57N 28°08' W 015°25'0 0.0
2017-Sep-16 14:30N 28°08' W 015°25'0 0.0
2017-Sep-16 14:00N 28°08' W 015°25'0 0.0
2017-Sep-16 13:30N 28°09' W 015°25'0 0.0
2017-Sep-16 13:00N 28°08' W 015°25'0 0.0
2017-Sep-16 12:30N 28°08' W 015°25'0 0.0
2017-Sep-16 12:00N 28°08' W 015°25'1 1.0
2017-Sep-16 11:30N 28°08' W 015°25'2 4.6
2017-Sep-16 11:00N 28°09' W 015°22'611.8
2017-Sep-16 10:30N 28°14' W 015°19'612.0
2017-Sep-16 10:00N 28°19' W 015°16'612.3
2017-Sep-16 09:30N 28°25' W 015°13'612.2
2017-Sep-16 09:00N 28°30' W 015°09'612.3
2017-Sep-16 08:30N 28°35' W 015°06'612.2
2017-Sep-16 08:00N 28°41' W 015°03'612.0
2017-Sep-16 07:30N 28°46' W 014°60'611.9
2017-Sep-16 07:00N 28°51' W 014°56'612.0
2017-Sep-16 06:30N 28°57' W 014°53'612.4
2017-Sep-16 06:00N 29°02' W 014°50'612.3
2017-Sep-16 05:30N 29°08' W 014°47'612.4
2017-Sep-16 05:00N 29°13' W 014°44'612.4
2017-Sep-16 04:30N 29°19' W 014°40'612.6
2017-Sep-16 04:00N 29°24' W 014°37'612.6
2017-Sep-16 03:30N 29°30' W 014°33'612.4
2017-Sep-16 03:00N 29°35' W 014°30'912.2
2017-Sep-16 02:18N 29°43' W 014°25'512.2
2017-Sep-16 01:54N 29°47' W 014°23'512.1
2017-Sep-16 01:30N 29°51' W 014°20'612.1
2017-Sep-16 01:00N 29°57' W 014°17'612.3
2017-Sep-16 00:29N 30°02' W 014°14'612.3
2017-Sep-16 00:00N 30°08' W 014°10'712.4
2017-Sep-15 23:27N 30°14' W 014°07'512.3
2017-Sep-15 23:00N 30°18' W 014°04'712.0
2017-Sep-15 22:27N 30°24' W 014°00'511.9
2017-Sep-15 22:00N 30°29' W 013°57'611.8
2017-Sep-15 21:30N 30°34' W 013°54'711.8
2017-Sep-15 20:54N 30°41' W 013°50'611.7
2017-Sep-15 20:25N 30°46' W 013°47'511.5
2017-Sep-15 19:59N 30°50' W 013°45'611.7
2017-Sep-15 19:30N 30°55' W 013°42'611.6
2017-Sep-15 18:59N 31°00' W 013°38'1811.6
2017-Sep-15 17:26N 31°16' W 013°28'811.8
2017-Sep-15 16:45N 31°23' W 013°24'1211.9
2017-Sep-15 15:42N 31°34' W 013°17'711.9
2017-Sep-15 15:09N 31°40' W 013°14'311.8
2017-Sep-15 14:56N 31°42' W 013°12'611.8
2017-Sep-15 14:24N 31°48' W 013°09'511.7
2017-Sep-15 13:59N 31°52' W 013°06'611.7
2017-Sep-15 13:28N 31°58' W 013°03'612.0
2017-Sep-15 13:00N 32°02' W 012°60'612.4
2017-Sep-15 12:30N 32°08' W 012°57'612.2
2017-Sep-15 12:00N 32°14' W 012°54'612.2
2017-Sep-15 11:30N 32°19' W 012°50'612.2
2017-Sep-15 11:00N 32°24' W 012°46'612.1
2017-Sep-15 10:29N 32°30' W 012°43'612.2
2017-Sep-15 10:00N 32°35' W 012°40'1112.0
2017-Sep-15 09:05N 32°45' W 012°34'112.0
2017-Sep-15 09:00N 32°46' W 012°33'811.9
2017-Sep-15 08:21N 32°53' W 012°29'1812.2
2017-Sep-15 06:52N 33°09' W 012°19'1612.2
2017-Sep-15 05:34N 33°22' W 012°10'112.0
2017-Sep-15 05:29N 33°23' W 012°09'  
Track history (hours):
 
Tides and Currents Weather Stations Pressure Air Temp Water Temp Dewpoint Dewpoint Depression Visibility Wind Speed Wind Dir Waves Ship Positions

Iblea

Last reported at 2017-Sep-25 04:21 UTC. Time now 2017-Sep-25 04:41 UTC.
Position N 37°12' W 009°42'.

Length 176 m; draft 11.4 m.

Type: Tanker. MMSI: 247087700.

Date/timePositionNaut miles runAvg speedWind from/ knotsBaromVisibWave heightAir tempDewpointWater temp
2017-Sep-25 04:21N 37°12' W 009°42'411.6
2017-Sep-25 03:58N 37°15' W 009°38'611.5
2017-Sep-25 03:29N 37°19' W 009°33'611.6
2017-Sep-25 02:56N 37°23' W 009°27'511.6
2017-Sep-25 02:30N 37°27' W 009°23'611.7
2017-Sep-25 01:59N 37°32' W 009°19'612.0
2017-Sep-25 01:29N 37°37' W 009°15'711.6
2017-Sep-25 00:55N 37°41' W 009°09'512.0
2017-Sep-25 00:29N 37°45' W 009°04'612.1
2017-Sep-25 00:00N 37°49' W 008°59'612.0
2017-Sep-24 23:30N 37°54' W 008°54'3 6.3
2017-Sep-24 23:00N 37°57' W 008°53'0 0.0
2017-Sep-24 22:29N 37°57' W 008°53'0 0.0
2017-Sep-24 21:59N 37°57' W 008°53'0 0.0
2017-Sep-24 21:29N 37°57' W 008°53'0 0.0
2017-Sep-24 20:59N 37°57' W 008°53'0 0.0
2017-Sep-24 20:29N 37°57' W 008°53'0 0.0
2017-Sep-24 19:59N 37°57' W 008°53'0 0.0
2017-Sep-24 19:29N 37°57' W 008°53'0 0.0
2017-Sep-24 18:59N 37°57' W 008°53'0 0.0
2017-Sep-24 18:29N 37°57' W 008°53'0 0.0
2017-Sep-24 17:59N 37°57' W 008°53'0 0.0
2017-Sep-24 17:29N 37°57' W 008°53'0 0.0
2017-Sep-24 16:59N 37°57' W 008°53'0 0.0
2017-Sep-24 16:29N 37°57' W 008°53'0 0.0
2017-Sep-24 15:59N 37°57' W 008°53'0 0.0
2017-Sep-24 15:29N 37°57' W 008°53'0 0.0
2017-Sep-24 14:59N 37°57' W 008°53'0 0.0
2017-Sep-24 14:29N 37°57' W 008°53'0 0.0
2017-Sep-24 13:59N 37°57' W 008°53'0 0.0
2017-Sep-24 13:29N 37°57' W 008°53'0 0.0
2017-Sep-24 12:59N 37°57' W 008°53'0 0.0
2017-Sep-24 12:29N 37°57' W 008°53'0 0.0
2017-Sep-24 11:59N 37°57' W 008°53'0 0.0
2017-Sep-24 11:29N 37°57' W 008°53'0 0.0
2017-Sep-24 10:59N 37°57' W 008°53'0 0.0
2017-Sep-24 10:29N 37°57' W 008°53'0 0.0
2017-Sep-24 09:59N 37°57' W 008°53'0 0.0
2017-Sep-24 09:29N 37°57' W 008°53'0 0.0
2017-Sep-24 08:59N 37°57' W 008°53'0 0.0
2017-Sep-24 08:29N 37°57' W 008°53'0 0.0
2017-Sep-24 07:59N 37°57' W 008°53'0 0.0
2017-Sep-24 07:29N 37°57' W 008°53'0 0.0
2017-Sep-24 06:59N 37°57' W 008°53'0 0.0
2017-Sep-24 06:29N 37°57' W 008°53'0 0.0
2017-Sep-24 05:59N 37°57' W 008°53'0 0.0
2017-Sep-24 05:29N 37°57' W 008°53'0 0.0
2017-Sep-24 04:59N 37°57' W 008°53'0 0.0
2017-Sep-24 04:29N 37°57' W 008°53'0 0.0
2017-Sep-24 03:59N 37°57' W 008°53'0 0.0
2017-Sep-24 03:29N 37°57' W 008°53'0 0.0
2017-Sep-24 02:59N 37°57' W 008°53'0 0.0
2017-Sep-24 02:29N 37°57' W 008°53'0 0.0
2017-Sep-24 01:59N 37°57' W 008°53'0 0.0
2017-Sep-24 01:29N 37°57' W 008°53'0 0.0
2017-Sep-24 00:59N 37°57' W 008°53'0 0.0
2017-Sep-24 00:29N 37°57' W 008°53'0 0.0
2017-Sep-23 23:59N 37°57' W 008°53'0 0.2
2017-Sep-23 23:30N 37°57' W 008°53'2 4.9
2017-Sep-23 23:00N 37°54' W 008°53'4 7.5
2017-Sep-23 22:30N 37°51' W 008°55'4 8.8
2017-Sep-23 22:00N 37°47' W 008°57'5 9.8
2017-Sep-23 21:30N 37°42' W 008°60'5 9.9
2017-Sep-23 21:00N 37°38' W 009°02'5 9.8
2017-Sep-23 20:30N 37°33' W 009°04'5 9.8
2017-Sep-23 20:00N 37°29' W 009°07'  
2017-Sep-21 15:19N 36°43' W 007°15'40 1.1
2017-Sep-20 04:01N 36°17' W 007°53'011.8
2017-Sep-20 04:00N 36°17' W 007°53'611.6
2017-Sep-20 03:30N 36°13' W 007°58'1211.5
2017-Sep-20 02:27N 36°04' W 008°08'911.3
2017-Sep-20 01:42N 35°58' W 008°15'211.1
2017-Sep-20 01:30N 35°56' W 008°17'611.0
2017-Sep-20 00:57N 35°52' W 008°22'1311.0
2017-Sep-19 23:43N 35°42' W 008°33'311.1
2017-Sep-19 23:27N 35°39' W 008°36'511.0
2017-Sep-19 23:00N 35°36' W 008°40'11411.1
2017-Sep-19 12:44N 34°13' W 010°15'7910.8
2017-Sep-19 05:27N 33°15' W 011°19'3810.5
2017-Sep-19 01:48N 32°47' W 011°50'6010.4
2017-Sep-18 20:02N 32°03' W 012°39'010.5
2017-Sep-18 20:00N 32°03' W 012°39'1010.7
2017-Sep-18 19:03N 31°56' W 012°47'210.8
2017-Sep-18 18:53N 31°54' W 012°49'11810.9
2017-Sep-18 08:03N 30°16' W 014°05'110.7
2017-Sep-18 07:57N 30°15' W 014°06'610.5
2017-Sep-18 07:21N 30°10' W 014°09'410.5
2017-Sep-18 07:00N 30°07' W 014°11'510.4
2017-Sep-18 06:30N 30°02' W 014°14'610.4
2017-Sep-18 05:55N 29°57' W 014°17'410.4
2017-Sep-18 05:31N 29°53' W 014°19'610.4
2017-Sep-18 04:55N 29°48' W 014°23'410.5
2017-Sep-18 04:30N 29°44' W 014°25'510.4
2017-Sep-18 04:00N 29°39' W 014°28'510.5
2017-Sep-18 03:30N 29°34' W 014°30'510.6
2017-Sep-18 03:00N 29°30' W 014°33'510.5
2017-Sep-18 02:30N 29°25' W 014°36'510.3
2017-Sep-18 01:59N 29°20' W 014°39'510.2
2017-Sep-18 01:30N 29°16' W 014°42'510.2
2017-Sep-18 01:00N 29°12' W 014°44'510.2
2017-Sep-18 00:30N 29°07' W 014°47'510.1
2017-Sep-18 00:00N 29°02' W 014°50'510.1
2017-Sep-17 23:30N 28°58' W 014°52'510.0
2017-Sep-17 23:00N 28°54' W 014°55'510.0
2017-Sep-17 22:30N 28°49' W 014°58'510.0
2017-Sep-17 22:00N 28°45' W 015°00'5 9.9
2017-Sep-17 21:30N 28°40' W 015°03'510.0
2017-Sep-17 21:00N 28°36' W 015°06'510.0
2017-Sep-17 20:30N 28°32' W 015°08'510.1
2017-Sep-17 20:00N 28°27' W 015°11'510.1
2017-Sep-17 19:30N 28°23' W 015°14'510.1
2017-Sep-17 19:00N 28°18' W 015°16'510.1
2017-Sep-17 18:30N 28°14' W 015°19'510.3
2017-Sep-17 18:00N 28°09' W 015°22'3 5.4
2017-Sep-17 17:30N 28°08' W 015°25'0 0.5
2017-Sep-17 17:00N 28°08' W 015°25'0 0.0
2017-Sep-17 16:30N 28°09' W 015°25'0 0.0
2017-Sep-17 16:00N 28°08' W 015°25'0 0.0
2017-Sep-17 15:30N 28°08' W 015°25'0 0.0
2017-Sep-17 15:00N 28°09' W 015°25'0 0.0
2017-Sep-17 14:30N 28°08' W 015°25'0 0.0
2017-Sep-17 14:00N 28°08' W 015°25'0 0.0
2017-Sep-17 13:30N 28°09' W 015°25'0 0.0
2017-Sep-17 13:00N 28°08' W 015°25'0 0.0
2017-Sep-17 12:30N 28°08' W 015°25'0 0.0
2017-Sep-17 12:00N 28°08' W 015°25'0 0.0
2017-Sep-17 11:30N 28°08' W 015°25'0 0.0
2017-Sep-17 10:51N 28°08' W 015°25'0 0.0
2017-Sep-17 10:24N 28°08' W 015°25'0 0.0
2017-Sep-17 09:54N 28°08' W 015°25'0 0.0
2017-Sep-17 09:24N 28°08' W 015°25'0 0.0
2017-Sep-17 08:54N 28°08' W 015°25'0 0.0
2017-Sep-17 08:24N 28°08' W 015°25'0 0.0
2017-Sep-17 07:54N 28°08' W 015°25'0 0.0
2017-Sep-17 07:24N 28°08' W 015°25'0 0.0
2017-Sep-17 06:57N 28°08' W 015°25'0 0.0
2017-Sep-17 06:27N 28°08' W 015°25'0 0.0
2017-Sep-17 05:57N 28°08' W 015°25'0 0.0
2017-Sep-17 05:27N 28°08' W 015°25'0 0.0
2017-Sep-17 04:57N 28°08' W 015°25'0 0.0
2017-Sep-17 04:30N 28°08' W 015°25'0 0.0
2017-Sep-17 04:00N 28°08' W 015°25'0 0.0
2017-Sep-17 03:30N 28°08' W 015°25'0 0.0
2017-Sep-17 03:00N 28°08' W 015°25'0 0.0
2017-Sep-17 02:30N 28°08' W 015°25'0 0.0
2017-Sep-17 02:00N 28°08' W 015°25'0 0.0
2017-Sep-17 01:30N 28°08' W 015°25'0 0.0
2017-Sep-17 01:00N 28°08' W 015°25'0 0.0
2017-Sep-17 00:30N 28°08' W 015°25'0 0.0
2017-Sep-17 00:00N 28°08' W 015°25'0 0.0
2017-Sep-16 23:30N 28°08' W 015°25'0 0.0
2017-Sep-16 23:00N 28°08' W 015°25'0 0.0
2017-Sep-16 22:30N 28°09' W 015°25'0 0.0
2017-Sep-16 22:00N 28°08' W 015°25'0 0.0
2017-Sep-16 21:21N 28°08' W 015°25'0 0.0
2017-Sep-16 20:51N 28°08' W 015°25'0 0.0
2017-Sep-16 20:24N 28°08' W 015°25'0 0.0
2017-Sep-16 19:54N 28°08' W 015°25'0 0.0
2017-Sep-16 19:24N 28°09' W 015°25'0 0.0
2017-Sep-16 18:54N 28°08' W 015°25'0 0.0
2017-Sep-16 18:24N 28°08' W 015°25'0 0.0
2017-Sep-16 17:54N 28°08' W 015°25'0 0.0
2017-Sep-16 17:21N 28°08' W 015°25'0 0.0
2017-Sep-16 16:57N 28°08' W 015°25'0 0.0
2017-Sep-16 16:27N 28°08' W 015°25'0 0.0
2017-Sep-16 15:57N 28°08' W 015°25'0 0.0
2017-Sep-16 15:27N 28°08' W 015°25'0 0.0
2017-Sep-16 14:57N 28°08' W 015°25'0 0.0
2017-Sep-16 14:30N 28°08' W 015°25'0 0.0
2017-Sep-16 14:00N 28°08' W 015°25'0 0.0
2017-Sep-16 13:30N 28°09' W 015°25'0 0.0
2017-Sep-16 13:00N 28°08' W 015°25'0 0.0
2017-Sep-16 12:30N 28°08' W 015°25'0 0.0
2017-Sep-16 12:00N 28°08' W 015°25'1 1.0
2017-Sep-16 11:30N 28°08' W 015°25'2 4.6
2017-Sep-16 11:00N 28°09' W 015°22'611.8
2017-Sep-16 10:30N 28°14' W 015°19'612.0
2017-Sep-16 10:00N 28°19' W 015°16'612.3
2017-Sep-16 09:30N 28°25' W 015°13'612.2
2017-Sep-16 09:00N 28°30' W 015°09'612.3
2017-Sep-16 08:30N 28°35' W 015°06'612.2
2017-Sep-16 08:00N 28°41' W 015°03'612.0
2017-Sep-16 07:30N 28°46' W 014°60'611.9
2017-Sep-16 07:00N 28°51' W 014°56'612.0
2017-Sep-16 06:30N 28°57' W 014°53'612.4
2017-Sep-16 06:00N 29°02' W 014°50'612.3
2017-Sep-16 05:30N 29°08' W 014°47'612.4
2017-Sep-16 05:00N 29°13' W 014°44'612.4
2017-Sep-16 04:30N 29°19' W 014°40'612.6
2017-Sep-16 04:00N 29°24' W 014°37'612.6
2017-Sep-16 03:30N 29°30' W 014°33'612.4
2017-Sep-16 03:00N 29°35' W 014°30'912.2
2017-Sep-16 02:18N 29°43' W 014°25'512.2
2017-Sep-16 01:54N 29°47' W 014°23'512.1
2017-Sep-16 01:30N 29°51' W 014°20'612.1
2017-Sep-16 01:00N 29°57' W 014°17'612.3
2017-Sep-16 00:29N 30°02' W 014°14'612.3
2017-Sep-16 00:00N 30°08' W 014°10'712.4
2017-Sep-15 23:27N 30°14' W 014°07'512.3
2017-Sep-15 23:00N 30°18' W 014°04'712.0
2017-Sep-15 22:27N 30°24' W 014°00'511.9
2017-Sep-15 22:00N 30°29' W 013°57'611.8
2017-Sep-15 21:30N 30°34' W 013°54'711.8
2017-Sep-15 20:54N 30°41' W 013°50'611.7
2017-Sep-15 20:25N 30°46' W 013°47'511.5
2017-Sep-15 19:59N 30°50' W 013°45'611.7
2017-Sep-15 19:30N 30°55' W 013°42'611.6
2017-Sep-15 18:59N 31°00' W 013°38'1811.6
2017-Sep-15 17:26N 31°16' W 013°28'811.8
2017-Sep-15 16:45N 31°23' W 013°24'1211.9
2017-Sep-15 15:42N 31°34' W 013°17'711.9
2017-Sep-15 15:09N 31°40' W 013°14'311.8
2017-Sep-15 14:56N 31°42' W 013°12'611.8
2017-Sep-15 14:24N 31°48' W 013°09'511.7
2017-Sep-15 13:59N 31°52' W 013°06'611.7
2017-Sep-15 13:28N 31°58' W 013°03'612.0
2017-Sep-15 13:00N 32°02' W 012°60'612.4
2017-Sep-15 12:30N 32°08' W 012°57'612.2
2017-Sep-15 12:00N 32°14' W 012°54'612.2
2017-Sep-15 11:30N 32°19' W 012°50'612.2
2017-Sep-15 11:00N 32°24' W 012°46'612.1
2017-Sep-15 10:29N 32°30' W 012°43'612.2
2017-Sep-15 10:00N 32°35' W 012°40'1112.0
2017-Sep-15 09:05N 32°45' W 012°34'112.0
2017-Sep-15 09:00N 32°46' W 012°33'811.9
2017-Sep-15 08:21N 32°53' W 012°29'1812.2
2017-Sep-15 06:52N 33°09' W 012°19'1612.2
2017-Sep-15 05:34N 33°22' W 012°10'112.0
2017-Sep-15 05:29N 33°23' W 012°09'  

Dump ship's entire track history